Iowa Falls, IA

3:41 AM CDT on October 01, 2014 (GMT -0500)
Marshalltown Municipal | Change Station
CLOSE
Current Station
Airport
Location: Marshalltown,
Elevation: 971 ft
Nearby Weather Stations

Elev 971 ft 42.11 °N, 92.92 °W | Updated 48 minutes ago

Overcast
Overcast
55 °F
Feels Like 55 °F
N
10
Wind Variable Wind from ESE

Today
High -- | Low -- °F
--% Chance of Precip.
Yesterday
High -- | Low -- °F
Precip. -- in
7:10 AM 6:54 PM
Waxing Crescent, 45% visible
Pressure 29.86 in
Visibility 10.0 miles
Clouds Few 8500 ft
Dew Point 49 °F
Humidity 80%
Rainfall 0.00 in
Snow Depth Not available.
UV 0 out of 12
Pollen 3.70 out of 12
Air Quality Not available.
Flu Activity Not available.
METAR KMIW 010753Z AUTO 12009KT 10SM FEW085 13/09 A2986 RMK AO2 SLP109 T01280094 TSNO

More Conditions Fewer Conditions

Pressure 29.86 in
Visibility 10.0 miles
Clouds Few 8500 ft
Dew Point 49 °F
Humidity 80%
Rainfall 0.00 in
Snow Depth Not available.
UV 0 out of 12
Pollen 3.70 out of 12
Air Quality Not available.
Flu Activity Not available.
METAR KMIW 010753Z AUTO 12009KT 10SM FEW085 13/09 A2986 RMK AO2 SLP109 T01280094 TSNO

More Conditions Fewer Conditions

10-Day Weather Forecast

Almanac

Astronomy

Oct. 01, 2014 Rise Set
Actual Time 7:10 AM CDT 6:54 PM CDT
Civil Twilight 6:42 AM CDT 7:22 PM CDT
Nautical Twilight 6:09 AM CDT 7:55 PM CDT
Astronomical Twilight 5:36 AM CDT 8:28 PM CDT
Moon 2:17 PM CDT No Moon Set
Length of Visible Light 12h 40m
Length of Day
11h 44m
Tomorrow will be 2m 51s shorter.
Waxing Crescent, 45% of the Moon is Illuminated
Today
Waxing Crescent
Oct 1
First Quarter
Oct 8
Full
Oct 15
Last Quarter
Oct 23
New

Today's Extremes

State Highs State Lows

Community

WunderPhotos

Upload Photos

1,757,902 photos uploaded!

Nearby

Snow Depth

Station Depth Elevation
No new snow has been reported.

Earthquake Activity

City Distance Mag. Time & Date
No recent earthquake activity has been reported nearby.
Minimum magnitude displayed is 2.5.

Coastal Water Temperatures

Place Temperature
No Stations Reporting

Nearby Weather Stations